Port Elgin, Canada
Current Conditions -  °F | °C
As of 11:00 PM on Wednesday 26 Nov 2014 (Local Time) from CYVV Reporting Station
Snow Showers Snow Showers  
Wind Chill: 20°   Ceiling: 3200
Heat Index: 28°   Visibility: 10mi
Dew Point: 25°   Wind: 8mph
Humidity: 86%   Direction: 70°ENE
Pressure: 30.08"   Gusts: NA
Location:  44.43°N, 81.39°W
Report Text: CYVV 270400Z 07007KT 10SM -SHSN SCT016 OVC032 M02/M04 A3008 RMK SC3SC5 SLP196
Loading
Personal Weather Stations






























Interactive Weather Map New forecast layout! Learn more

10-Day Weather Forecast

Advertisements
Track Severe Weather on mobile